Time;durP1;ratioP1;P1;durP2;ratioP2;P2;SDS_P1;SDS_P2;PMS_P1;PMS_P2;Temp;Humidity;BMP_temperature;BMP_pressure;BME280_temperature;BME280_humidity;BME280_pressure;Samples;Min_cycle;Max_cycle;Signal;HPM_P1;HPM_P2
2023/09/23 00:00:40;;;;;;;1.90;1.02;;;12.90;99.90;;;;;;5045308;28;20422;-79
2023/09/23 00:03:08;;;;;;;2.00;1.10;;;12.90;99.90;;;;;;5023313;28;20154;-82
2023/09/23 00:05:37;;;;;;;2.42;1.30;;;12.90;99.90;;;;;;5050168;28;20052;-81
2023/09/23 00:08:05;;;;;;;2.30;1.38;;;12.80;99.90;;;;;;5035824;28;20135;-84
2023/09/23 00:10:32;;;;;;;5.68;1.40;;;12.80;99.90;;;;;;5011072;28;20141;-82
2023/09/23 00:12:59;;;;;;;1.95;1.27;;;12.80;99.90;;;;;;5030790;28;20047;-78
2023/09/23 00:15:26;;;;;;;2.95;1.33;;;12.80;99.90;;;;;;4979889;28;20048;-83
2023/09/23 00:17:54;;;;;;;2.20;1.30;;;13.10;99.90;;;;;;5017858;28;20094;-84
2023/09/23 00:20:23;;;;;;;2.80;1.42;;;12.70;99.90;;;;;;5034497;28;20411;-79
2023/09/23 00:22:50;;;;;;;4.03;1.40;;;12.70;99.90;;;;;;5033069;28;20048;-83
2023/09/23 00:25:18;;;;;;;3.53;1.50;;;12.70;99.90;;;;;;5047393;28;20163;-79
2023/09/23 00:27:48;;;;;;;5.60;1.50;;;12.60;99.90;;;;;;5031195;28;20559;-88
2023/09/23 00:30:14;;;;;;;1.52;1.13;;;12.60;99.90;;;;;;5037293;28;20049;-79
2023/09/23 00:32:44;;;;;;;3.10;1.23;;;12.60;99.90;;;;;;5034907;28;20045;-84
2023/09/23 00:35:11;;;;;;;3.63;1.40;;;12.60;99.90;;;;;;5036519;28;20048;-79
2023/09/23 00:37:39;;;;;;;3.45;1.40;;;12.60;99.90;;;;;;5038967;28;20053;-85
2023/09/23 00:40:06;;;;;;;5.72;1.40;;;12.50;99.90;;;;;;5036471;28;20045;-79
2023/09/23 00:42:32;;;;;;;3.92;1.60;;;12.50;99.90;;;;;;5037036;28;20098;-86
2023/09/23 00:44:58;;;;;;;4.40;1.30;;;12.50;99.90;;;;;;4988247;28;20425;-80
2023/09/23 00:47:25;;;;;;;4.80;1.50;;;12.40;99.90;;;;;;5021134;28;20459;-85
2023/09/23 00:49:51;;;;;;;3.90;1.70;;;12.40;99.90;;;;;;5053561;28;20491;-80
2023/09/23 00:52:17;;;;;;;4.28;1.88;;;12.30;99.90;;;;;;5021238;28;20064;-84
2023/09/23 00:54:43;;;;;;;2.60;1.30;;;12.30;99.90;;;;;;5022191;28;20044;-80
2023/09/23 00:57:09;;;;;;;2.85;1.90;;;12.30;99.90;;;;;;5056017;28;20041;-82
2023/09/23 00:59:35;;;;;;;6.70;1.90;;;12.30;99.90;;;;;;5021977;28;20056;-79
2023/09/23 01:02:03;;;;;;;3.45;1.80;;;12.30;99.90;;;;;;5037330;28;20044;-80
2023/09/23 01:04:29;;;;;;;4.60;1.63;;;12.30;99.90;;;;;;5040571;28;20501;-79
2023/09/23 01:06:55;;;;;;;3.15;1.58;;;12.30;99.90;;;;;;5040976;28;20052;-84
2023/09/23 01:09:22;;;;;;;3.65;1.83;;;12.40;99.90;;;;;;5027311;28;20051;-77
2023/09/23 01:11:50;;;;;;;2.92;1.52;;;12.30;99.90;;;;;;5054770;28;20351;-82
2023/09/23 01:14:21;;;;;;;3.05;1.65;;;12.40;99.90;;;;;;5043968;28;20220;-84
2023/09/23 01:16:53;;;;;;;7.15;1.88;;;12.40;99.90;;;;;;5023103;28;20080;-78
2023/09/23 01:19:23;;;;;;;2.80;1.38;;;12.40;99.90;;;;;;5037457;28;20157;-82
2023/09/23 01:21:49;;;;;;;2.78;1.50;;;12.50;99.90;;;;;;5016055;28;20049;-85
2023/09/23 01:24:18;;;;;;;3.13;1.30;;;12.50;99.90;;;;;;5037563;28;20060;-80
2023/09/23 01:26:51;;;;;;;5.00;1.20;;;12.50;99.90;;;;;;5033547;28;20155;-79
2023/09/23 01:29:22;;;;;;;3.72;1.30;;;12.60;99.90;;;;;;5018829;28;20093;-85
2023/09/23 01:32:13;;;;;;;2.08;1.20;;;12.60;99.90;;;;;;5034994;28;20143;-80
2023/09/23 01:34:39;;;;;;;4.22;1.15;;;12.70;99.90;;;;;;5036594;28;20138;-81
2023/09/23 01:37:05;;;;;;;2.63;1.10;;;12.70;99.90;;;;;;5038277;28;20053;-82
2023/09/23 01:39:32;;;;;;;3.17;1.33;;;12.80;99.90;;;;;;5027004;28;20383;-78
2023/09/23 01:41:59;;;;;;;5.80;1.15;;;12.80;99.90;;;;;;5037147;28;20044;-81
2023/09/23 01:44:24;;;;;;;3.30;1.13;;;12.80;99.90;;;;;;5037683;28;20049;-80
2023/09/23 01:46:50;;;;;;;2.75;0.98;;;12.90;99.90;;;;;;5019639;28;20044;-78
2023/09/23 01:49:16;;;;;;;4.90;1.23;;;12.90;99.90;;;;;;5031232;28;20056;-77
2023/09/23 01:51:44;;;;;;;5.43;1.13;;;12.90;99.90;;;;;;5020670;28;20048;-78
2023/09/23 01:54:11;;;;;;;6.70;1.20;;;13.00;99.90;;;;;;5030970;28;20430;-80
2023/09/23 01:56:37;;;;;;;6.60;1.30;;;13.00;99.90;;;;;;5038191;28;20049;-81
2023/09/23 01:59:02;;;;;;;4.13;1.40;;;13.10;99.90;;;;;;5035977;28;20059;-77
2023/09/23 02:01:29;;;;;;;3.58;1.10;;;13.10;99.90;;;;;;4997315;28;20048;-77
2023/09/23 02:03:56;;;;;;;4.88;1.20;;;13.10;99.90;;;;;;5021986;28;20415;-81
2023/09/23 02:06:23;;;;;;;3.67;1.38;;;13.10;99.90;;;;;;5021142;28;20044;-83
2023/09/23 02:08:49;;;;;;;3.30;1.27;;;13.10;99.90;;;;;;5019739;28;20056;-86
2023/09/23 02:11:16;;;;;;;3.80;1.10;;;13.10;99.90;;;;;;5022354;28;20123;-80
2023/09/23 02:13:42;;;;;;;6.13;1.23;;;13.10;99.90;;;;;;5021222;28;20045;-76
2023/09/23 02:16:16;;;;;;;2.50;0.90;;;13.10;99.90;;;;;;5007979;28;20051;-78
2023/09/23 02:18:42;;;;;;;3.22;1.00;;;13.20;99.90;;;;;;5041255;28;20119;-79
2023/09/23 02:21:08;;;;;;;4.50;1.00;;;13.20;99.90;;;;;;5040295;28;20585;-77
2023/09/23 02:23:34;;;;;;;4.63;0.98;;;13.30;99.90;;;;;;5028048;28;20064;-78
2023/09/23 02:26:01;;;;;;;4.03;1.02;;;13.30;99.90;;;;;;5001807;28;20037;-77
2023/09/23 02:28:28;;;;;;;3.00;1.00;;;13.30;99.90;;;;;;5042770;28;20093;-76
2023/09/23 02:30:54;;;;;;;2.20;1.00;;;13.30;99.90;;;;;;5059510;28;20055;-77
2023/09/23 02:33:20;;;;;;;3.85;1.08;;;13.30;99.90;;;;;;5025128;28;20313;-77
2023/09/23 02:35:45;;;;;;;2.17;1.02;;;13.30;99.90;;;;;;5018508;28;21514;-76
2023/09/23 02:38:11;;;;;;;3.38;1.15;;;13.30;99.90;;;;;;5024299;28;20077;-74
2023/09/23 02:40:41;;;;;;;7.45;1.23;;;13.30;99.90;;;;;;5057817;28;20055;-76
2023/09/23 02:43:07;;;;;;;4.07;1.30;;;13.30;99.90;;;;;;5042434;28;20497;-77
2023/09/23 02:45:33;;;;;;;4.38;1.10;;;13.30;99.90;;;;;;5021412;28;20040;-76
2023/09/23 02:48:01;;;;;;;3.33;1.10;;;13.30;99.90;;;;;;5039450;28;20056;-78
2023/09/23 02:50:26;;;;;;;3.95;1.02;;;13.30;99.90;;;;;;5026138;28;20049;-78
2023/09/23 02:52:52;;;;;;;2.50;1.10;;;13.30;99.90;;;;;;5037116;28;20048;-81
2023/09/23 02:55:20;;;;;;;4.18;0.80;;;13.20;99.90;;;;;;5035107;28;20041;-82
2023/09/23 02:57:54;;;;;;;5.82;1.10;;;13.30;99.90;;;;;;5024352;28;20056;-84
2023/09/23 03:00:30;;;;;;;4.63;1.10;;;13.30;99.90;;;;;;5037620;28;20084;-82
2023/09/23 03:03:08;;;;;;;2.75;1.25;;;13.30;99.90;;;;;;5027296;28;20049;-78
2023/09/23 03:05:38;;;;;;;1.92;1.05;;;13.30;99.90;;;;;;5022792;28;20047;-81
2023/09/23 03:08:07;;;;;;;1.70;1.00;;;13.30;99.90;;;;;;5036070;28;20048;-81
2023/09/23 03:10:39;;;;;;;6.47;1.05;;;13.30;99.90;;;;;;5029814;28;21741;-79
2023/09/23 03:13:06;;;;;;;2.60;1.10;;;13.30;99.90;;;;;;5021643;28;20487;-77
2023/09/23 03:15:52;;;;;;;2.80;1.00;;;12.80;99.90;;;;;;5036877;28;20051;-83
2023/09/23 03:18:33;;;;;;;4.00;1.30;;;13.30;99.90;;;;;;5038531;28;20094;-80
2023/09/23 03:21:09;;;;;;;3.38;1.00;;;13.30;99.90;;;;;;5019737;28;20309;-77
2023/09/23 03:23:40;;;;;;;3.58;1.13;;;13.30;99.90;;;;;;5040809;28;20052;-77
2023/09/23 03:26:07;;;;;;;1.95;0.90;;;13.20;99.90;;;;;;5002132;28;20059;-88
2023/09/23 03:28:38;;;;;;;2.40;1.00;;;13.20;99.90;;;;;;5041331;28;20036;-80
2023/09/23 03:31:07;;;;;;;3.78;1.02;;;13.20;99.90;;;;;;5038972;28;20055;-88
2023/09/23 03:33:32;;;;;;;2.42;0.93;;;13.10;99.90;;;;;;5039690;28;20076;-79
2023/09/23 03:35:58;;;;;;;2.05;1.00;;;13.10;99.90;;;;;;5042365;28;20151;-76
2023/09/23 03:38:24;;;;;;;2.13;0.98;;;13.00;99.90;;;;;;5044299;28;20550;-85
2023/09/23 03:40:52;;;;;;;3.13;1.30;;;13.00;99.90;;;;;;5038843;28;20048;-79
2023/09/23 03:43:21;;;;;;;2.53;1.30;;;13.00;99.90;;;;;;5048987;28;20416;-79
2023/09/23 03:45:47;;;;;;;2.25;1.30;;;13.00;99.90;;;;;;5039046;28;20455;-84
2023/09/23 03:48:14;;;;;;;5.47;1.55;;;12.90;99.90;;;;;;5047961;28;20048;-77
2023/09/23 03:50:42;;;;;;;3.30;1.52;;;12.90;99.90;;;;;;5027042;28;20105;-81
2023/09/23 03:53:10;;;;;;;3.03;1.50;;;12.90;99.90;;;;;;5041609;28;20502;-77
2023/09/23 03:55:36;;;;;;;4.65;2.17;;;12.80;99.90;;;;;;5021422;28;20046;-81
2023/09/23 03:58:03;;;;;;;4.28;1.88;;;12.80;99.90;;;;;;5039145;28;20056;-81
2023/09/23 04:00:29;;;;;;;4.13;2.00;;;12.80;99.90;;;;;;5042836;28;20055;-83
2023/09/23 04:02:55;;;;;;;3.40;2.00;;;12.70;99.90;;;;;;5022936;28;20648;-78
2023/09/23 04:05:23;;;;;;;4.43;2.00;;;12.70;99.90;;;;;;5003661;28;20048;-78
2023/09/23 04:07:50;;;;;;;6.07;2.05;;;12.80;99.90;;;;;;5019903;28;20045;-80
2023/09/23 04:10:23;;;;;;;4.72;2.50;;;12.70;99.90;;;;;;5035836;28;20054;-78
2023/09/23 04:12:49;;;;;;;4.93;2.35;;;12.70;99.90;;;;;;5038387;28;20120;-82
2023/09/23 04:15:15;;;;;;;5.15;2.83;;;12.70;99.90;;;;;;5012238;28;20098;-77
2023/09/23 04:17:41;;;;;;;5.88;2.90;;;12.70;99.90;;;;;;5015679;28;20043;-77
2023/09/23 04:20:11;;;;;;;5.85;2.45;;;12.70;99.90;;;;;;5055312;28;20064;-80
2023/09/23 04:22:41;;;;;;;5.28;2.15;;;12.70;99.90;;;;;;5016989;28;20071;-76
2023/09/23 04:25:08;;;;;;;2.90;1.65;;;12.70;99.90;;;;;;5036136;28;20721;-77
2023/09/23 04:27:38;;;;;;;6.13;1.77;;;12.80;99.90;;;;;;5013999;28;20047;-84
2023/09/23 04:30:11;;;;;;;4.57;1.27;;;12.90;99.90;;;;;;5038472;28;20075;-80
2023/09/23 04:32:41;;;;;;;3.40;1.10;;;13.00;99.90;;;;;;5011158;28;20079;-80
2023/09/23 04:35:15;;;;;;;7.18;2.17;;;13.10;99.90;;;;;;5017474;28;20040;-75
2023/09/23 04:37:41;;;;;;;4.38;1.58;;;13.20;99.90;;;;;;5022958;28;20052;-74
2023/09/23 04:40:13;;;;;;;5.88;1.45;;;13.20;99.90;;;;;;5030510;28;20051;-74
2023/09/23 04:42:40;;;;;;;6.72;1.35;;;13.30;99.90;;;;;;5014594;28;20073;-76
2023/09/23 04:45:08;;;;;;;5.78;1.45;;;13.30;99.90;;;;;;5010211;28;20052;-77
2023/09/23 04:47:35;;;;;;;3.95;1.00;;;13.30;99.90;;;;;;5038343;28;20072;-81
2023/09/23 04:50:05;;;;;;;2.50;0.82;;;13.30;99.90;;;;;;5044430;28;20070;-79
2023/09/23 04:52:31;;;;;;;2.67;1.00;;;13.30;99.90;;;;;;5042032;28;20052;-80
2023/09/23 04:54:57;;;;;;;2.25;0.90;;;13.30;99.90;;;;;;5036415;28;20395;-78
2023/09/23 04:57:23;;;;;;;1.92;0.90;;;13.30;99.90;;;;;;5037544;28;20061;-86
2023/09/23 04:59:49;;;;;;;1.55;0.90;;;13.30;99.90;;;;;;5042337;28;20064;-89
2023/09/23 05:02:18;;;;;;;2.63;0.98;;;13.30;99.90;;;;;;5038517;28;20041;-81
2023/09/23 05:04:53;;;;;;;3.95;1.10;;;13.30;99.90;;;;;;5016708;28;20052;-88
2023/09/23 05:07:25;;;;;;;3.88;0.95;;;13.30;99.90;;;;;;5036393;28;20079;-86
2023/09/23 05:09:55;;;;;;;4.47;1.10;;;13.30;99.90;;;;;;5041221;28;20036;-85
2023/09/23 05:12:22;;;;;;;2.40;1.05;;;13.30;99.90;;;;;;5026505;28;20163;-77
2023/09/23 05:14:47;;;;;;;4.40;1.42;;;13.30;99.90;;;;;;5018685;28;20491;-81
2023/09/23 05:17:15;;;;;;;5.13;1.30;;;13.30;99.90;;;;;;5001239;28;20052;-79
2023/09/23 05:19:42;;;;;;;5.32;1.60;;;13.20;99.90;;;;;;5042292;28;20052;-79
2023/09/23 05:22:10;;;;;;;5.25;1.63;;;13.30;99.90;;;;;;5034862;28;20055;-79
2023/09/23 05:24:37;;;;;;;2.85;1.30;;;13.30;99.90;;;;;;5032885;28;20079;-78
2023/09/23 05:27:03;;;;;;;5.43;1.40;;;13.30;99.90;;;;;;5024580;28;20185;-77
2023/09/23 05:29:29;;;;;;;6.65;1.88;;;13.30;99.90;;;;;;5024643;28;20184;-75
2023/09/23 05:31:55;;;;;;;5.28;2.00;;;13.40;99.90;;;;;;5006333;28;20052;-78
2023/09/23 05:34:20;;;;;;;4.93;2.15;;;13.40;99.90;;;;;;5046587;28;20084;-76
2023/09/23 05:36:47;;;;;;;7.43;2.30;;;13.40;99.90;;;;;;5008217;28;20045;-75
2023/09/23 05:39:18;;;;;;;5.03;1.88;;;13.50;99.90;;;;;;5031696;28;20124;-75
2023/09/23 05:41:44;;;;;;;4.95;2.50;;;13.50;99.90;;;;;;5021483;28;20120;-74
2023/09/23 05:44:18;;;;;;;6.00;2.30;;;13.60;99.90;;;;;;5035139;28;20152;-76
2023/09/23 05:46:45;;;;;;;6.35;2.92;;;13.60;99.90;;;;;;5004169;28;20047;-75
2023/09/23 05:49:12;;;;;;;6.20;2.50;;;13.70;99.90;;;;;;5031073;28;20048;-76
2023/09/23 05:51:38;;;;;;;9.50;2.40;;;13.70;99.90;;;;;;5038088;28;20047;-75
2023/09/23 05:54:04;;;;;;;5.18;1.50;;;13.80;99.90;;;;;;5029420;28;20094;-75
2023/09/23 05:56:30;;;;;;;3.20;1.20;;;13.70;99.90;;;;;;5035775;28;20174;-76
2023/09/23 05:58:56;;;;;;;6.03;1.52;;;13.50;99.90;;;;;;5034967;28;20060;-76
2023/09/23 06:01:21;;;;;;;6.32;1.30;;;13.40;99.90;;;;;;5018052;28;20044;-75
2023/09/23 06:03:49;;;;;;;8.10;1.55;;;13.30;99.90;;;;;;5047578;28;20125;-76
2023/09/23 06:06:15;;;;;;;4.90;1.40;;;13.30;99.90;;;;;;5018208;28;20044;-75
2023/09/23 06:08:41;;;;;;;5.55;1.50;;;13.20;99.90;;;;;;5012152;28;20059;-76
2023/09/23 06:11:09;;;;;;;7.63;1.40;;;13.30;99.90;;;;;;5032626;28;20043;-76
2023/09/23 06:13:35;;;;;;;11.07;1.40;;;13.30;99.90;;;;;;5032112;28;20075;-75
2023/09/23 06:16:05;;;;;;;7.57;1.23;;;13.30;99.90;;;;;;5029402;28;20041;-76
2023/09/23 06:18:32;;;;;;;6.95;1.08;;;13.30;99.90;;;;;;5051092;28;20073;-75
2023/09/23 06:21:02;;;;;;;4.68;1.23;;;13.20;99.90;;;;;;5017186;28;20044;-74
2023/09/23 06:23:31;;;;;;;4.28;1.00;;;13.20;99.90;;;;;;5032488;28;20133;-75
2023/09/23 06:26:02;;;;;;;4.47;1.10;;;13.20;99.90;;;;;;5036196;28;20111;-75
2023/09/23 06:28:33;;;;;;;3.67;0.73;;;13.20;99.90;;;;;;4995470;28;21281;-76
2023/09/23 06:30:59;;;;;;;2.45;0.90;;;13.10;99.90;;;;;;5016667;28;20443;-74
2023/09/23 06:33:24;;;;;;;3.67;0.80;;;13.10;99.90;;;;;;5017285;28;20111;-75
2023/09/23 06:35:50;;;;;;;3.85;0.73;;;13.10;99.90;;;;;;5013963;28;20160;-74
2023/09/23 06:38:19;;;;;;;1.40;0.60;;;13.10;99.90;;;;;;5032053;28;20743;-75
2023/09/23 06:40:45;;;;;;;7.25;0.93;;;13.10;99.90;;;;;;5054740;28;20138;-74
2023/09/23 06:43:12;;;;;;;3.70;1.08;;;13.10;99.90;;;;;;5020188;28;20157;-74
2023/09/23 06:45:38;;;;;;;5.32;1.10;;;13.10;99.90;;;;;;5017478;28;20605;-75
2023/09/23 06:48:04;;;;;;;5.35;1.10;;;13.10;99.90;;;;;;5017382;28;20041;-75
2023/09/23 06:50:30;;;;;;;8.23;0.98;;;13.20;99.90;;;;;;5015359;28;20043;-75
2023/09/23 06:52:57;;;;;;;7.53;1.08;;;13.30;99.90;;;;;;5018409;28;20049;-75
2023/09/23 06:55:22;;;;;;;7.18;1.13;;;13.30;99.90;;;;;;4994474;28;20136;-77
2023/09/23 06:57:48;;;;;;;5.28;1.00;;;13.40;99.90;;;;;;5023474;28;20040;-75
2023/09/23 07:00:14;;;;;;;5.03;1.13;;;13.40;99.90;;;;;;5014597;28;20078;-74
2023/09/23 07:02:40;;;;;;;2.95;1.38;;;13.50;99.90;;;;;;5014601;28;20090;-76
2023/09/23 07:05:06;;;;;;;4.65;1.40;;;13.50;99.90;;;;;;5030509;28;22074;-75
2023/09/23 07:07:32;;;;;;;4.85;1.48;;;13.60;99.90;;;;;;4996511;28;20044;-76
2023/09/23 07:09:58;;;;;;;6.28;1.90;;;13.70;99.90;;;;;;5037201;28;20045;-76
2023/09/23 07:12:23;;;;;;;5.82;1.90;;;13.80;99.90;;;;;;5018054;28;20074;-76
2023/09/23 07:14:49;;;;;;;6.32;1.70;;;13.90;99.90;;;;;;5015725;28;20052;-77
2023/09/23 07:17:15;;;;;;;4.75;1.58;;;14.00;99.90;;;;;;5019134;28;20376;-76
2023/09/23 07:19:41;;;;;;;4.28;1.40;;;14.00;99.90;;;;;;5034920;28;20044;-75
2023/09/23 07:22:07;;;;;;;2.78;1.20;;;14.10;99.90;;;;;;5018043;28;20041;-75
2023/09/23 07:24:35;;;;;;;3.97;1.40;;;14.20;99.90;;;;;;4994164;28;20049;-75
2023/09/23 07:27:01;;;;;;;2.90;1.20;;;14.20;99.90;;;;;;5021672;28;20055;-76
2023/09/23 07:29:27;;;;;;;4.88;1.10;;;14.30;99.90;;;;;;5048908;28;20954;-76
2023/09/23 07:31:53;;;;;;;4.32;1.30;;;14.50;99.90;;;;;;5007237;28;20072;-74
2023/09/23 07:34:19;;;;;;;5.40;1.42;;;14.60;99.90;;;;;;5013012;28;20134;-76
2023/09/23 07:36:46;;;;;;;3.25;1.30;;;14.80;99.90;;;;;;5028850;28;20434;-75
2023/09/23 07:39:12;;;;;;;4.53;1.10;;;14.80;99.90;;;;;;5049534;28;20488;-74
2023/09/23 07:41:38;;;;;;;3.00;1.00;;;14.90;99.90;;;;;;5036890;28;20205;-74
2023/09/23 07:44:05;;;;;;;5.22;1.10;;;14.90;99.90;;;;;;4998906;28;20043;-75
2023/09/23 07:46:30;;;;;;;5.47;1.30;;;15.10;99.90;;;;;;5036920;28;20052;-76
2023/09/23 07:48:56;;;;;;;1.98;0.90;;;15.10;99.90;;;;;;5023333;28;20035;-74
2023/09/23 07:51:22;;;;;;;4.97;1.30;;;15.10;99.90;;;;;;5054570;28;20137;-75
2023/09/23 07:53:53;;;;;;;5.50;1.08;;;15.30;99.90;;;;;;5010731;28;20135;-76
2023/09/23 07:56:19;;;;;;;3.88;1.10;;;15.40;99.90;;;;;;5016819;28;20044;-76
2023/09/23 07:58:45;;;;;;;2.88;1.00;;;15.60;99.90;;;;;;5038678;28;20047;-75
2023/09/23 08:01:11;;;;;;;4.85;1.02;;;15.70;99.90;;;;;;5022951;28;20483;-76
2023/09/23 08:03:36;;;;;;;3.35;0.93;;;15.90;99.90;;;;;;5036096;28;20053;-76
2023/09/23 08:06:02;;;;;;;3.65;1.30;;;15.90;99.90;;;;;;5015456;28;20174;-75
2023/09/23 08:08:28;;;;;;;3.03;0.90;;;16.00;99.90;;;;;;5015339;28;20258;-76
2023/09/23 08:10:54;;;;;;;4.13;0.98;;;16.00;99.90;;;;;;5032723;28;20387;-77
2023/09/23 08:13:20;;;;;;;3.15;1.00;;;16.00;99.90;;;;;;5019704;28;20179;-78
2023/09/23 08:15:47;;;;;;;5.80;1.13;;;16.10;99.90;;;;;;5031466;28;20479;-75
2023/09/23 08:18:13;;;;;;;6.70;1.50;;;16.10;99.90;;;;;;5028005;28;20106;-76
2023/09/23 08:20:42;;;;;;;4.05;1.05;;;16.20;99.90;;;;;;5032968;28;20082;-77
2023/09/23 08:23:07;;;;;;;3.05;1.00;;;16.20;99.90;;;;;;5012469;28;20041;-77
2023/09/23 08:25:34;;;;;;;4.07;0.90;;;16.20;99.90;;;;;;5010709;28;20503;-76
2023/09/23 08:28:01;;;;;;;3.28;1.10;;;16.10;99.90;;;;;;5031225;28;20040;-77
2023/09/23 08:30:27;;;;;;;3.28;0.77;;;16.10;99.90;;;;;;5035459;28;20055;-77
2023/09/23 08:32:54;;;;;;;1.63;0.80;;;16.10;99.90;;;;;;5021265;28;20040;-76
2023/09/23 08:35:20;;;;;;;3.05;1.02;;;16.10;99.90;;;;;;5032620;28;20068;-76
2023/09/23 08:37:46;;;;;;;4.70;1.20;;;16.10;99.90;;;;;;5034166;28;20112;-76
2023/09/23 08:40:13;;;;;;;4.05;1.10;;;16.30;99.90;;;;;;5033923;28;20044;-77
2023/09/23 08:42:39;;;;;;;4.63;0.82;;;16.40;99.90;;;;;;5031849;28;20457;-77
2023/09/23 08:45:09;;;;;;;4.18;1.10;;;16.60;99.90;;;;;;5032080;28;20083;-76
2023/09/23 08:47:39;;;;;;;2.97;1.10;;;16.80;99.90;;;;;;5032971;28;20117;-76
2023/09/23 08:50:11;;;;;;;4.20;1.17;;;17.00;99.70;;;;;;5026853;28;20120;-77
2023/09/23 08:52:37;;;;;;;3.78;1.00;;;17.10;98.80;;;;;;5041532;28;20053;-77
2023/09/23 08:55:04;;;;;;;2.35;0.98;;;17.40;98.10;;;;;;5033967;28;20047;-76
2023/09/23 08:57:33;;;;;;;4.07;0.93;;;17.50;97.40;;;;;;5031743;28;20053;-77
2023/09/23 08:59:59;;;;;;;2.42;1.15;;;17.60;96.90;;;;;;5034316;28;20067;-77
2023/09/23 09:02:25;;;;;;;2.67;0.82;;;17.60;96.70;;;;;;5028362;28;20141;-77
2023/09/23 09:04:58;;;;;;;3.05;0.93;;;17.70;96.50;;;;;;5012134;28;20083;-76
2023/09/23 09:07:31;;;;;;;2.50;0.75;;;17.80;95.80;;;;;;5031639;28;20065;-76
2023/09/23 09:09:57;;;;;;;3.35;0.93;;;17.90;95.00;;;;;;5031923;28;20056;-77
2023/09/23 09:12:23;;;;;;;3.20;0.85;;;18.00;93.70;;;;;;5021323;28;20040;-75
2023/09/23 09:14:51;;;;;;;1.67;0.82;;;18.10;92.40;;;;;;5056056;28;21039;-76
2023/09/23 09:17:18;;;;;;;2.75;0.80;;;18.10;90.70;;;;;;5040807;28;20120;-75
2023/09/23 09:19:44;;;;;;;3.75;0.80;;;18.10;90.40;;;;;;5037544;28;20495;-75
2023/09/23 09:22:10;;;;;;;1.25;0.68;;;18.10;90.70;;;;;;5018090;28;20533;-76
2023/09/23 09:24:36;;;;;;;1.38;0.60;;;18.20;88.10;;;;;;5055293;28;20088;-75
2023/09/23 09:27:02;;;;;;;2.30;0.90;;;18.50;86.70;;;;;;5041548;28;20124;-74
2023/09/23 09:29:29;;;;;;;3.58;0.80;;;18.70;83.20;;;;;;5022502;28;20044;-77
2023/09/23 09:32:03;;;;;;;2.28;0.60;;;19.00;81.20;;;;;;5040117;28;20167;-76
2023/09/23 09:34:37;;;;;;;2.25;0.80;;;19.20;78.10;;;;;;5042257;28;20369;-76
2023/09/23 09:37:03;;;;;;;2.28;0.75;;;19.50;75.90;;;;;;5042358;28;20044;-73
2023/09/23 09:39:34;;;;;;;2.28;0.65;;;19.70;74.10;;;;;;5041294;28;20048;-76
2023/09/23 09:42:05;;;;;;;1.27;0.60;;;19.70;73.50;;;;;;5035226;28;20048;-77
2023/09/23 09:44:33;;;;;;;2.05;0.73;;;19.60;73.20;;;;;;5042760;28;20071;-76
2023/09/23 09:47:00;;;;;;;2.05;0.60;;;19.40;74.60;;;;;;5039190;28;20136;-76
2023/09/23 09:49:26;;;;;;;1.60;0.50;;;19.30;76.30;;;;;;5037724;28;20095;-76
2023/09/23 09:51:52;;;;;;;3.33;0.68;;;19.30;77.40;;;;;;5018445;28;20045;-76
2023/09/23 09:54:20;;;;;;;1.77;0.70;;;19.50;78.50;;;;;;5034539;28;20055;-74
2023/09/23 09:56:52;;;;;;;1.42;0.55;;;19.50;78.30;;;;;;5014090;28;20049;-77
2023/09/23 09:59:27;;;;;;;3.00;0.60;;;19.40;75.80;;;;;;5038704;28;20079;-75
2023/09/23 10:01:56;;;;;;;1.95;0.73;;;19.10;76.70;;;;;;5039273;28;21694;-76
2023/09/23 10:04:22;;;;;;;1.83;0.93;;;19.00;80.40;;;;;;5036414;28;20048;-76
2023/09/23 10:06:55;;;;;;;2.25;0.90;;;18.80;84.00;;;;;;5057530;28;21329;-77
2023/09/23 10:09:31;;;;;;;4.43;1.00;;;18.50;85.50;;;;;;5040997;28;20060;-76
2023/09/23 10:11:59;;;;;;;5.63;1.20;;;18.20;88.70;;;;;;5017771;28;20101;-77
2023/09/23 10:14:28;;;;;;;4.75;0.98;;;17.80;91.00;;;;;;5036416;28;20079;-77
2023/09/23 10:17:05;;;;;;;5.53;1.08;;;17.50;92.50;;;;;;5033431;28;20048;-77
2023/09/23 10:19:37;;;;;;;4.93;1.42;;;17.30;93.80;;;;;;5038445;28;20724;-76
2023/09/23 10:22:17;;;;;;;4.43;1.23;;;17.00;95.00;;;;;;5057170;28;20135;-76
2023/09/23 10:24:44;;;;;;;3.42;1.13;;;16.90;95.80;;;;;;5037586;28;20517;-77
2023/09/23 10:27:10;;;;;;;4.05;1.00;;;16.90;96.50;;;;;;5036797;28;20036;-76
2023/09/23 10:29:47;;;;;;;8.00;0.90;;;16.80;96.90;;;;;;5057897;28;20050;-75
2023/09/23 10:32:15;;;;;;;3.70;1.15;;;16.90;97.00;;;;;;5042332;28;20048;-76
2023/09/23 10:34:50;;;;;;;4.93;1.00;;;17.00;96.90;;;;;;4994890;28;20048;-75
2023/09/23 10:37:29;;;;;;;3.30;1.10;;;17.10;97.00;;;;;;5050426;28;20433;-76
2023/09/23 10:40:13;;;;;;;3.85;1.10;;;17.10;96.90;;;;;;5035410;28;20086;-76
2023/09/23 10:42:44;;;;;;;5.63;1.42;;;17.00;96.90;;;;;;5014905;28;20653;-76
2023/09/23 10:45:12;;;;;;;3.15;0.90;;;16.80;97.10;;;;;;5004601;28;20044;-75
2023/09/23 10:47:38;;;;;;;2.55;0.80;;;16.60;96.90;;;;;;5039003;28;20087;-76
2023/09/23 10:50:05;;;;;;;2.70;0.90;;;16.50;96.10;;;;;;5021881;28;20049;-75
2023/09/23 10:52:32;;;;;;;4.00;0.60;;;16.30;95.80;;;;;;5033288;28;20518;-75
2023/09/23 10:54:57;;;;;;;1.45;0.60;;;16.30;95.80;;;;;;5036440;28;20082;-77
2023/09/23 10:57:24;;;;;;;3.75;1.08;;;16.20;95.70;;;;;;5036528;28;20053;-76
2023/09/23 10:59:54;;;;;;;4.47;0.90;;;16.10;95.80;;;;;;5014444;28;20063;-76
2023/09/23 11:02:22;;;;;;;2.80;0.98;;;16.10;95.80;;;;;;5053384;28;20645;-76
2023/09/23 11:04:49;;;;;;;3.35;0.90;;;16.00;96.10;;;;;;5034868;28;20052;-76
2023/09/23 11:07:20;;;;;;;2.58;1.08;;;16.00;96.50;;;;;;5018521;28;20040;-76
2023/09/23 11:09:46;;;;;;;5.05;1.10;;;15.90;96.80;;;;;;5036625;28;20047;-76
2023/09/23 11:12:13;;;;;;;4.07;1.00;;;16.00;97.10;;;;;;5036057;28;20194;-76
2023/09/23 11:14:44;;;;;;;1.70;0.90;;;16.20;97.20;;;;;;5030205;28;20048;-76
2023/09/23 11:17:25;;;;;;;3.08;1.10;;;16.60;97.10;;;;;;5050750;28;20135;-75
2023/09/23 11:19:55;;;;;;;3.40;1.15;;;17.00;96.50;;;;;;5039854;28;20114;-75
2023/09/23 11:22:28;;;;;;;1.40;0.80;;;17.30;95.40;;;;;;5030505;28;20045;-76
2023/09/23 11:24:55;;;;;;;4.13;1.10;;;17.60;94.70;;;;;;5034148;28;20053;-75
2023/09/23 11:27:22;;;;;;;3.25;1.10;;;17.90;94.00;;;;;;5054156;28;20431;-77
2023/09/23 11:29:49;;;;;;;3.67;0.93;;;18.30;93.70;;;;;;5040061;28;20393;-77
2023/09/23 11:32:23;;;;;;;2.78;1.08;;;18.70;93.00;;;;;;5040421;28;20045;-76
2023/09/23 11:34:52;;;;;;;2.67;1.00;;;18.90;91.50;;;;;;5038086;28;20048;-77
2023/09/23 11:37:22;;;;;;;3.85;0.93;;;19.00;90.60;;;;;;5014053;28;20079;-76
2023/09/23 11:39:50;;;;;;;2.85;1.08;;;19.20;88.90;;;;;;5027754;28;20048;-77
2023/09/23 11:42:15;;;;;;;2.58;0.77;;;19.40;86.70;;;;;;5017492;28;20044;-77
2023/09/23 11:44:42;;;;;;;4.70;0.80;;;19.60;85.20;;;;;;5053069;28;20052;-74
2023/09/23 11:47:07;;;;;;;2.50;0.90;;;19.60;82.50;;;;;;5022426;28;20119;-76
2023/09/23 11:49:39;;;;;;;2.30;0.82;;;19.90;81.50;;;;;;5004836;28;20059;-75
2023/09/23 11:52:12;;;;;;;2.83;1.00;;;20.20;80.10;;;;;;5054865;28;20048;-76
2023/09/23 11:54:38;;;;;;;2.53;0.85;;;20.60;76.50;;;;;;5014158;28;20060;-75
2023/09/23 11:57:04;;;;;;;3.47;1.10;;;20.90;73.80;;;;;;5027425;28;20052;-76
2023/09/23 11:59:30;;;;;;;2.75;1.00;;;21.00;69.10;;;;;;5028637;28;20037;-75
2023/09/23 12:01:56;;;;;;;3.17;0.98;;;20.90;62.40;;;;;;5021405;28;20051;-75
2023/09/23 12:04:21;;;;;;;6.15;1.10;;;21.00;63.50;;;;;;5038930;28;20636;-76
2023/09/23 12:06:47;;;;;;;3.42;1.13;;;21.10;64.00;;;;;;5003142;28;20047;-75
2023/09/23 12:09:13;;;;;;;3.60;0.98;;;21.10;58.50;;;;;;5041588;28;20044;-75
2023/09/23 12:11:39;;;;;;;2.22;0.80;;;21.00;51.80;;;;;;5047854;28;20608;-75
2023/09/23 12:14:04;;;;;;;2.63;0.70;;;20.90;45.60;;;;;;5030903;28;20061;-77
2023/09/23 12:16:31;;;;;;;4.60;0.60;;;20.90;45.40;;;;;;5017796;28;20036;-76
2023/09/23 12:18:56;;;;;;;3.78;1.02;;;21.20;48.60;;;;;;5049246;28;20128;-76
2023/09/23 12:21:22;;;;;;;2.22;0.60;;;21.30;41.00;;;;;;5030677;28;20471;-74
2023/09/23 12:23:48;;;;;;;2.67;0.80;;;21.60;38.50;;;;;;5031778;28;20158;-75
2023/09/23 12:26:15;;;;;;;2.30;0.63;;;21.80;34.90;;;;;;5018363;28;20040;-76
2023/09/23 12:28:41;;;;;;;2.10;0.90;;;22.30;32.90;;;;;;5015917;28;20055;-77
2023/09/23 12:31:06;;;;;;;1.55;0.50;;;22.50;26.70;;;;;;5032533;28;20051;-76
2023/09/23 12:33:32;;;;;;;1.73;0.65;;;22.50;18.60;;;;;;5051260;28;20048;-75
2023/09/23 12:35:58;;;;;;;4.00;0.70;;;22.60;17.40;;;;;;5018344;28;22069;-76
2023/09/23 12:38:23;;;;;;;2.92;0.80;;;22.30;10.40;;;;;;5034671;28;20166;-76
2023/09/23 12:40:49;;;;;;;2.67;0.55;;;22.20;14.60;;;;;;5033200;28;20601;-78
2023/09/23 12:43:15;;;;;;;3.22;0.70;;;21.90;16.00;;;;;;5029584;28;20137;-77
2023/09/23 12:45:43;;;;;;;3.78;0.77;;;21.90;25.90;;;;;;5012633;28;20049;-76
2023/09/23 12:48:09;;;;;;;1.25;0.60;;;22.00;28.20;;;;;;5031842;28;20109;-76
2023/09/23 12:50:35;;;;;;;2.90;0.80;;;21.80;28.10;;;;;;5013649;28;20273;-78